Time;durP1;ratioP1;P1;durP2;ratioP2;P2;SDS_P1;SDS_P2;PMS_P1;PMS_P2;Temp;Humidity;BMP_temperature;BMP_pressure;BME280_temperature;BME280_humidity;BME280_pressure;Samples;Min_cycle;Max_cycle;Signal;HPM_P1;HPM_P2
2024/01/31 00:01:17;0.00;0.00;0.62;0.00;0.00;0.62;3.60;2.60;;;22.90;23.80;;;;;;2226118;62;20455;-72
2024/01/31 00:04:02;0.00;0.00;0.62;0.00;0.00;0.62;3.00;1.87;;;22.90;23.80;;;;;;2225690;62;20906;-72
2024/01/31 00:06:49;0.00;0.00;0.62;0.00;0.00;0.62;2.53;1.90;;;22.90;23.80;;;;;;2226228;62;20940;-72
2024/01/31 00:09:35;0.00;0.00;0.62;0.00;0.00;0.62;2.50;2.10;;;22.90;23.80;;;;;;2226247;62;20416;-71
2024/01/31 00:12:20;0.00;0.00;0.62;0.00;0.00;0.62;2.50;1.83;;;22.90;23.80;;;;;;2225815;62;20412;-73
2024/01/31 00:15:05;0.00;0.00;0.62;0.00;0.00;0.62;3.23;2.00;;;22.90;23.80;;;;;;2226221;62;20514;-74
2024/01/31 00:17:51;0.00;0.00;0.62;0.00;0.00;0.62;2.70;2.00;;;22.90;23.80;;;;;;2226362;62;20359;-70
2024/01/31 00:20:35;0.00;0.00;0.62;0.00;0.00;0.62;2.17;1.63;;;22.90;23.90;;;;;;2223345;62;20709;-74
2024/01/31 00:23:20;0.00;0.00;0.62;0.00;0.00;0.62;2.80;1.67;;;22.90;23.80;;;;;;2229146;62;20921;-71
2024/01/31 00:26:06;0.00;0.00;0.62;0.00;0.00;0.62;3.27;2.33;;;22.90;23.80;;;;;;2226370;62;20892;-71
2024/01/31 00:28:51;0.00;0.00;0.62;0.00;0.00;0.62;2.80;2.10;;;22.90;23.80;;;;;;2454472;54;20381;-72
2024/01/31 00:31:35;0.00;0.00;0.62;0.00;0.00;0.62;2.53;1.67;;;22.90;23.80;;;;;;2221889;62;20385;-71
2024/01/31 00:34:20;0.00;0.00;0.62;0.00;0.00;0.62;2.23;1.70;;;22.90;23.80;;;;;;2225979;62;20436;-71
2024/01/31 00:37:04;0.00;0.00;0.62;0.00;0.00;0.62;3.23;1.90;;;22.90;23.80;;;;;;2228995;62;20379;-71
2024/01/31 00:39:49;0.00;0.00;0.62;0.00;0.00;0.62;2.33;1.40;;;22.90;23.80;;;;;;2223295;62;20910;-71
2024/01/31 00:42:37;0.00;0.00;0.62;0.00;0.00;0.62;2.33;1.60;;;22.90;23.80;;;;;;2225535;62;20514;-71
2024/01/31 00:45:23;0.00;0.00;0.62;0.00;0.00;0.62;2.87;2.27;;;22.90;23.90;;;;;;2225859;62;20369;-70
2024/01/31 00:48:08;0.00;0.00;0.62;0.00;0.00;0.62;2.50;1.40;;;22.80;24.30;;;;;;2229428;62;20389;-71
2024/01/31 00:50:52;0.00;0.00;0.62;0.00;0.00;0.62;2.20;1.60;;;22.90;23.80;;;;;;2545384;46;20371;-69
2024/01/31 00:53:38;0.00;0.00;0.62;0.00;0.00;0.62;1.90;1.33;;;22.90;23.80;;;;;;2229025;62;20372;-71
2024/01/31 00:56:22;0.00;0.00;0.62;0.00;0.00;0.62;2.33;1.50;;;22.80;23.80;;;;;;2226042;62;20425;-70
2024/01/31 00:59:08;0.00;0.00;0.62;0.00;0.00;0.62;2.10;1.40;;;22.90;23.80;;;;;;2228834;62;20364;-70
2024/01/31 01:01:53;0.00;0.00;0.62;0.00;0.00;0.62;2.27;1.43;;;22.90;23.80;;;;;;2225845;62;20934;-71
2024/01/31 01:04:37;0.00;0.00;0.62;0.00;0.00;0.62;2.10;1.40;;;22.80;23.80;;;;;;2225775;62;20411;-71
2024/01/31 01:07:22;0.00;0.00;0.62;0.00;0.00;0.62;1.87;1.10;;;22.90;23.80;;;;;;2226155;62;20376;-71
2024/01/31 01:10:09;0.00;0.00;0.62;0.00;0.00;0.62;2.37;1.33;;;22.90;23.80;;;;;;2229236;62;20441;-70
2024/01/31 01:12:56;0.00;0.00;0.62;0.00;0.00;0.62;1.80;1.17;;;22.80;23.80;;;;;;2228943;62;20464;-72
2024/01/31 01:15:42;0.00;0.00;0.62;0.00;0.00;0.62;1.60;1.00;;;22.80;24.30;;;;;;2228994;62;20396;-70
2024/01/31 01:18:27;0.00;0.00;0.62;0.00;0.00;0.62;1.90;1.30;;;22.90;24.40;;;;;;2225445;62;20376;-70
2024/01/31 01:21:11;0.00;0.00;0.62;0.00;0.00;0.62;1.80;1.30;;;22.90;23.90;;;;;;2229020;62;20368;-74
2024/01/31 01:23:56;0.00;0.00;0.62;0.00;0.00;0.62;2.00;1.37;;;22.80;23.80;;;;;;2229205;62;20417;-70
2024/01/31 01:26:40;0.00;0.00;0.62;0.00;0.00;0.62;2.40;1.60;;;22.80;23.80;;;;;;2223171;62;20407;-71
2024/01/31 01:29:25;0.00;0.00;0.62;0.00;0.00;0.62;1.73;1.10;;;22.90;23.90;;;;;;2229057;62;20391;-71
2024/01/31 01:32:12;0.00;0.00;0.62;0.00;0.00;0.62;2.00;1.27;;;22.90;23.90;;;;;;2226324;62;20392;-70
2024/01/31 01:34:57;0.00;0.00;0.62;0.00;0.00;0.62;2.00;1.23;;;22.90;23.80;;;;;;2228347;62;20610;-70
2024/01/31 01:37:42;0.00;0.00;0.62;0.00;0.00;0.62;1.50;1.00;;;22.80;23.80;;;;;;2223178;62;20380;-71
2024/01/31 01:40:27;0.00;0.00;0.62;0.00;0.00;0.62;2.60;1.30;;;22.90;23.90;;;;;;2222309;62;20384;-70
2024/01/31 01:43:16;0.00;0.00;0.62;0.00;0.00;0.62;2.00;1.10;;;22.80;23.80;;;;;;2228081;62;20474;-71
2024/01/31 01:46:12;0.00;0.00;0.62;0.00;0.00;0.62;1.93;1.40;;;22.80;23.80;;;;;;2224531;62;20912;-70
2024/01/31 01:48:59;0.00;0.00;0.62;0.00;0.00;0.62;2.00;1.27;;;22.90;23.80;;;;;;2225109;62;20494;-72
2024/01/31 01:51:44;0.00;0.00;0.62;0.00;0.00;0.62;1.73;1.10;;;22.80;23.80;;;;;;2225184;62;21052;-71
2024/01/31 01:54:30;0.00;0.00;0.62;0.00;0.00;0.62;1.90;1.13;;;22.80;23.80;;;;;;2225140;62;20994;-71
2024/01/31 01:57:14;0.00;0.00;0.62;0.00;0.00;0.62;2.80;1.40;;;22.80;23.80;;;;;;2222559;62;20384;-71
2024/01/31 02:00:01;0.00;0.00;0.62;0.00;0.00;0.62;2.10;1.40;;;22.80;23.80;;;;;;2225301;62;20789;-72
2024/01/31 02:02:45;0.00;0.00;0.62;0.00;0.00;0.62;2.33;1.30;;;22.80;23.80;;;;;;2224740;62;20464;-71
2024/01/31 02:05:31;0.00;0.00;0.62;0.00;0.00;0.62;2.00;1.30;;;22.80;23.80;;;;;;2222736;62;20412;-71
2024/01/31 02:08:16;0.00;0.00;0.62;0.00;0.00;0.62;2.00;1.20;;;22.80;23.80;;;;;;2228190;62;20895;-71
2024/01/31 02:11:01;0.00;0.00;0.62;0.00;0.00;0.62;1.87;1.17;;;22.80;23.80;;;;;;2228012;62;20375;-72
2024/01/31 02:13:46;0.00;0.00;0.62;0.00;0.00;0.62;1.87;0.93;;;22.80;23.80;;;;;;2228432;62;20400;-70
2024/01/31 02:16:31;0.00;0.00;0.62;0.00;0.00;0.62;1.87;1.17;;;22.80;23.80;;;;;;2225249;62;20368;-73
2024/01/31 02:19:15;0.00;0.00;0.62;0.00;0.00;0.62;2.97;1.27;;;22.80;23.80;;;;;;2225110;62;20464;-71
2024/01/31 02:22:05;0.00;0.00;0.62;0.00;0.00;0.62;1.70;1.00;;;22.90;23.80;;;;;;2228032;62;20830;-70
2024/01/31 02:24:51;0.00;0.00;0.62;0.00;0.00;0.62;1.80;0.97;;;22.80;23.80;;;;;;2227986;62;20688;-71
2024/01/31 02:27:36;0.00;0.00;0.62;0.00;0.00;0.62;1.87;1.10;;;22.80;23.80;;;;;;2222734;62;20431;-72
2024/01/31 02:30:21;0.00;0.00;0.62;0.00;0.00;0.62;1.70;1.00;;;22.90;23.90;;;;;;2551907;46;20910;-71
2024/01/31 02:33:06;0.00;0.00;0.62;0.00;0.00;0.62;1.70;1.30;;;22.80;23.80;;;;;;2228027;62;20396;-72
2024/01/31 02:35:51;0.00;0.00;0.62;0.00;0.00;0.62;1.77;0.97;;;22.80;24.30;;;;;;2228860;62;20461;-71
2024/01/31 02:38:36;0.00;0.00;0.62;0.00;0.00;0.62;1.77;1.00;;;22.80;23.80;;;;;;2225637;62;20371;-73
2024/01/31 02:41:22;0.00;0.00;0.62;0.00;0.00;0.62;1.60;0.80;;;22.80;23.80;;;;;;2227880;62;20484;-70
2024/01/31 02:44:07;0.00;0.00;0.62;0.00;0.00;0.62;1.77;0.93;;;22.90;23.90;;;;;;2225604;62;20439;-71
2024/01/31 02:46:51;0.00;0.00;0.62;0.00;0.00;0.62;1.47;0.87;;;22.80;23.80;;;;;;2225314;62;20371;-71
2024/01/31 02:49:36;0.00;0.00;0.62;0.00;0.00;0.62;2.10;0.93;;;22.80;23.80;;;;;;2225692;62;20911;-70
2024/01/31 02:52:21;0.00;0.00;0.62;0.00;0.00;0.62;1.43;0.87;;;22.80;23.80;;;;;;2228647;62;20408;-70
2024/01/31 02:55:07;0.00;0.00;0.62;0.00;0.00;0.62;2.33;1.37;;;22.80;23.80;;;;;;2228362;62;20800;-70
2024/01/31 02:57:53;0.00;0.00;0.62;0.00;0.00;0.62;1.70;1.00;;;22.80;23.80;;;;;;2229209;62;20440;-71
2024/01/31 03:00:38;0.00;0.00;0.62;0.00;0.00;0.62;1.80;1.00;;;22.80;23.80;;;;;;2228795;62;20360;-71
2024/01/31 03:03:22;0.00;0.00;0.62;0.00;0.00;0.62;1.60;0.97;;;22.80;23.80;;;;;;2225344;62;20878;-71
2024/01/31 03:06:07;0.00;0.00;0.62;0.00;0.00;0.62;1.50;0.90;;;22.80;23.80;;;;;;2225542;62;20464;-70
2024/01/31 03:08:52;0.00;0.00;0.62;0.00;0.00;0.62;1.60;1.10;;;22.80;23.80;;;;;;2228771;62;20371;-71
2024/01/31 03:11:37;0.00;0.00;0.62;0.00;0.00;0.62;1.87;0.97;;;22.80;23.70;;;;;;2607865;46;20431;-70
2024/01/31 03:14:23;0.00;0.00;0.62;0.00;0.00;0.62;2.10;1.20;;;22.80;23.80;;;;;;2225816;62;20459;-70
2024/01/31 03:17:08;0.00;0.00;0.62;0.00;0.00;0.62;1.57;0.93;;;22.80;23.70;;;;;;2228511;62;20372;-71
2024/01/31 03:19:53;0.00;0.00;0.62;0.00;0.00;0.62;1.50;0.90;;;22.80;23.80;;;;;;2229051;62;20391;-71
2024/01/31 03:22:37;0.00;0.00;0.62;0.00;0.00;0.62;1.53;1.00;;;22.80;23.80;;;;;;2228472;62;20391;-73
2024/01/31 03:25:22;0.00;0.00;0.62;0.00;0.00;0.62;1.63;0.80;;;22.80;23.80;;;;;;2228354;62;20880;-71
2024/01/31 03:28:07;0.00;0.00;0.62;0.00;0.00;0.62;1.57;0.80;;;22.80;23.80;;;;;;2228731;62;20372;-71
2024/01/31 03:30:53;0.00;0.00;0.62;0.00;0.00;0.62;1.70;0.93;;;22.80;23.80;;;;;;2228505;62;20474;-71
2024/01/31 03:33:38;0.00;0.00;0.62;0.00;0.00;0.62;1.60;0.90;;;22.80;23.80;;;;;;2458489;54;20371;-71
2024/01/31 03:36:23;0.00;0.00;0.62;0.00;0.00;0.62;1.87;0.90;;;22.80;23.80;;;;;;2228968;62;20356;-71
2024/01/31 03:39:07;0.00;0.00;0.62;0.00;0.00;0.62;1.70;0.87;;;22.80;23.80;;;;;;2228250;62;20371;-70
2024/01/31 03:41:52;0.00;0.00;0.62;0.00;0.00;0.62;1.50;0.80;;;22.80;23.80;;;;;;2228419;62;20841;-70
2024/01/31 03:44:36;0.00;0.00;0.62;0.00;0.00;0.62;2.47;1.47;;;22.80;23.80;;;;;;2225279;62;20372;-71
2024/01/31 03:47:22;0.00;0.00;0.62;0.00;0.00;0.62;1.80;0.90;;;22.80;23.80;;;;;;2228444;62;20433;-71
2024/01/31 03:50:08;0.00;0.00;0.62;0.00;0.00;0.62;1.50;0.80;;;22.80;23.80;;;;;;2225267;62;20478;-70
2024/01/31 03:52:53;0.00;0.00;0.62;0.00;0.00;0.62;1.80;0.90;;;22.80;23.80;;;;;;2228435;62;20395;-71
2024/01/31 03:55:37;0.00;0.00;0.62;0.00;0.00;0.62;1.30;0.70;;;22.80;23.80;;;;;;2225297;62;20393;-71
2024/01/31 03:58:22;0.00;0.00;0.62;0.00;0.00;0.62;1.80;0.60;;;22.90;23.80;;;;;;2225502;62;20465;-70
2024/01/31 04:01:07;0.00;0.00;0.62;0.00;0.00;0.62;1.60;0.80;;;22.80;23.70;;;;;;2228040;62;20476;-71
2024/01/31 04:03:53;0.00;0.00;0.62;0.00;0.00;0.62;1.30;0.70;;;22.80;23.70;;;;;;2229047;62;20455;-71
2024/01/31 04:06:37;0.00;0.00;0.62;0.00;0.00;0.62;1.80;0.83;;;22.90;23.80;;;;;;2225552;62;20371;-75
2024/01/31 04:09:22;0.00;0.00;0.62;0.00;0.00;0.62;1.30;0.70;;;22.90;23.80;;;;;;2227944;62;20857;-70
2024/01/31 04:12:07;0.00;0.00;0.62;0.00;0.00;0.62;1.53;0.80;;;22.80;23.70;;;;;;2225624;62;20949;-71
2024/01/31 04:14:52;0.00;0.00;0.62;0.00;0.00;0.62;1.50;0.70;;;22.90;23.80;;;;;;2225566;62;20388;-71
2024/01/31 04:17:37;0.00;0.00;0.62;0.00;0.00;0.62;1.27;0.63;;;22.90;23.80;;;;;;2227861;62;20914;-70
2024/01/31 04:20:23;0.00;0.00;0.62;0.00;0.00;0.62;1.60;1.00;;;22.80;23.70;;;;;;2225364;62;20420;-71
2024/01/31 04:23:08;0.00;0.00;0.62;0.00;0.00;0.62;1.30;0.70;;;22.90;23.70;;;;;;2228102;62;20426;-72
2024/01/31 04:25:52;0.00;0.00;0.62;0.00;0.00;0.62;1.40;0.90;;;22.80;23.70;;;;;;2228454;62;20744;-70
2024/01/31 04:28:37;0.00;0.00;0.62;0.00;0.00;0.62;1.73;0.80;;;22.90;23.70;;;;;;2228471;62;20384;-70
2024/01/31 04:31:22;0.00;0.00;0.62;0.00;0.00;0.62;1.47;0.77;;;22.80;23.70;;;;;;2228119;62;20408;-71
2024/01/31 04:34:06;0.00;0.00;0.62;0.00;0.00;0.62;1.40;0.87;;;22.80;23.70;;;;;;2226052;62;20468;-69
2024/01/31 04:36:52;0.00;0.00;0.62;0.00;0.00;0.62;1.47;0.80;;;22.90;23.70;;;;;;2229194;62;20429;-69
2024/01/31 04:39:37;0.00;0.00;0.62;0.00;0.00;0.62;1.33;0.73;;;22.80;23.70;;;;;;2228931;62;20384;-69
2024/01/31 04:42:21;0.00;0.00;0.62;0.00;0.00;0.62;1.40;0.70;;;22.80;23.60;;;;;;2225793;62;20421;-69
2024/01/31 04:45:08;0.00;0.00;0.62;0.00;0.00;0.62;1.77;1.07;;;22.80;23.70;;;;;;2228820;62;20436;-69
2024/01/31 04:47:53;0.00;0.00;0.62;0.00;0.00;0.62;1.50;0.80;;;22.80;23.60;;;;;;2728083;46;20349;-69
2024/01/31 04:50:38;0.00;0.00;0.62;0.00;0.00;0.62;1.70;0.70;;;22.90;23.70;;;;;;2225145;62;20414;-69
2024/01/31 04:53:24;0.00;0.00;0.62;0.00;0.00;0.62;1.90;0.77;;;22.80;23.60;;;;;;2223304;62;20797;-70
2024/01/31 04:56:09;0.00;0.00;0.62;0.00;0.00;0.62;1.60;0.90;;;22.80;23.60;;;;;;2229183;62;20994;-69
2024/01/31 04:58:53;0.00;0.00;0.62;0.00;0.00;0.62;1.93;0.90;;;22.90;23.70;;;;;;2229183;62;20405;-69
2024/01/31 05:01:38;0.00;0.00;0.62;0.00;0.00;0.62;2.10;0.83;;;22.80;23.70;;;;;;2228720;62;20400;-70
2024/01/31 05:04:22;0.00;0.00;0.62;0.00;0.00;0.62;1.50;0.90;;;22.80;23.60;;;;;;2228947;62;20452;-70
2024/01/31 05:07:07;0.00;0.00;0.62;0.00;0.00;0.62;1.60;0.90;;;22.80;23.60;;;;;;2229024;62;20900;-70
2024/01/31 05:09:53;0.00;0.00;0.62;0.00;0.00;0.62;1.40;0.77;;;22.80;23.60;;;;;;2666104;46;20384;-72
2024/01/31 05:12:37;0.00;0.00;0.62;0.00;0.00;0.62;1.90;0.90;;;22.80;23.60;;;;;;2225786;62;20400;-70
2024/01/31 05:15:22;0.00;0.00;0.62;0.00;0.00;0.62;1.50;0.80;;;22.80;23.60;;;;;;2222773;62;20966;-70
2024/01/31 05:18:07;0.00;0.00;0.62;0.00;0.00;0.62;1.97;0.83;;;22.80;23.70;;;;;;2229171;62;20899;-70
2024/01/31 05:20:51;0.00;0.00;0.62;0.00;0.00;0.62;3.17;1.00;;;22.80;23.70;;;;;;2225882;62;20391;-70
2024/01/31 05:23:36;0.00;0.00;0.62;0.00;0.00;0.62;1.90;1.00;;;22.80;23.60;;;;;;2225619;62;20460;-70
2024/01/31 05:26:22;0.00;0.00;0.62;0.00;0.00;0.62;1.90;0.90;;;22.80;23.70;;;;;;2229321;62;20865;-70
2024/01/31 05:29:06;0.00;0.00;0.62;0.00;0.00;0.62;1.53;0.80;;;22.70;23.60;;;;;;2223256;62;20927;-70
2024/01/31 05:31:51;0.00;0.00;0.62;0.00;0.00;0.62;1.40;0.70;;;22.80;23.70;;;;;;2225738;62;20476;-70
2024/01/31 05:34:37;0.00;0.00;0.62;0.00;0.00;0.62;1.50;0.77;;;22.80;23.70;;;;;;2228885;62;21021;-70
2024/01/31 05:37:21;0.00;0.00;0.62;0.00;0.00;0.62;1.63;0.70;;;22.80;23.70;;;;;;2225554;62;20910;-70
2024/01/31 05:40:09;0.00;0.00;0.62;0.00;0.00;0.62;1.80;0.90;;;22.80;23.70;;;;;;2229161;62;20885;-70
2024/01/31 05:42:55;0.00;0.00;0.62;0.00;0.00;0.62;1.93;1.00;;;22.80;23.70;;;;;;2223130;62;20540;-70
2024/01/31 05:45:39;0.00;0.00;0.62;0.00;0.00;0.62;1.50;0.90;;;22.80;23.70;;;;;;2228788;62;20799;-70
2024/01/31 05:48:24;0.00;0.00;0.62;0.00;0.00;0.62;2.17;0.97;;;22.80;23.70;;;;;;2226001;62;20425;-70
2024/01/31 05:51:09;0.00;0.00;0.62;0.00;0.00;0.62;1.90;0.80;;;22.80;23.70;;;;;;2225767;62;20904;-70
2024/01/31 05:53:54;0.00;0.00;0.62;0.00;0.00;0.62;1.67;0.77;;;22.80;23.70;;;;;;2228908;62;20403;-70
2024/01/31 05:56:38;0.00;0.00;0.62;0.00;0.00;0.62;1.47;0.77;;;22.80;23.70;;;;;;2228891;62;20353;-70
2024/01/31 05:59:25;0.00;0.00;0.62;0.00;0.00;0.62;1.70;0.93;;;22.70;23.60;;;;;;2228303;62;20415;-71
2024/01/31 06:02:09;0.00;0.00;0.62;0.00;0.00;0.62;1.63;0.70;;;22.80;23.70;;;;;;2228796;62;20444;-70
2024/01/31 06:04:54;0.00;0.00;0.62;0.00;0.00;0.62;1.77;0.80;;;22.70;23.60;;;;;;2228793;62;20372;-70
2024/01/31 06:07:39;0.00;0.00;0.62;0.00;0.00;0.62;1.70;0.93;;;22.70;23.60;;;;;;2228456;62;20838;-70
2024/01/31 06:10:24;0.00;0.00;0.62;0.00;0.00;0.62;1.70;0.90;;;22.80;23.70;;;;;;2228665;62;20383;-70
2024/01/31 06:13:09;0.00;0.00;0.62;0.00;0.00;0.62;2.13;0.90;;;22.70;23.60;;;;;;2237397;57;20423;-70
2024/01/31 06:15:55;0.00;0.00;0.62;0.00;0.00;0.62;1.60;0.90;;;22.80;23.70;;;;;;2229286;62;20395;-69
2024/01/31 06:18:39;0.00;0.00;0.62;0.00;0.00;0.62;2.67;1.17;;;22.70;23.60;;;;;;2232625;62;20427;-70
2024/01/31 06:21:24;0.00;0.00;0.62;0.00;0.00;0.62;1.80;1.00;;;22.70;23.60;;;;;;2229280;62;20443;-70
2024/01/31 06:24:08;0.00;0.00;0.62;0.00;0.00;0.62;1.67;1.03;;;22.70;23.60;;;;;;2229662;62;20990;-70
2024/01/31 06:26:53;0.00;0.00;0.62;0.00;0.00;0.62;2.20;1.20;;;22.80;23.70;;;;;;2229855;62;20423;-70
2024/01/31 06:29:39;0.00;0.00;0.62;0.00;0.00;0.62;2.23;1.40;;;22.70;23.60;;;;;;2230070;62;20378;-71
2024/01/31 06:32:31;0.00;0.00;0.62;0.00;0.00;0.62;3.70;1.63;;;22.70;23.60;;;;;;2234093;62;20410;-70
2024/01/31 06:35:16;0.00;0.00;0.62;0.00;0.00;0.62;2.57;1.37;;;22.70;23.60;;;;;;2234450;62;20407;-70
2024/01/31 06:38:00;0.00;0.00;0.62;0.00;0.00;0.62;2.30;1.53;;;22.70;23.60;;;;;;2233091;62;20409;-71
2024/01/31 06:40:45;0.00;0.00;0.62;0.00;0.00;0.62;2.33;1.50;;;22.70;23.60;;;;;;2232867;62;20366;-70
2024/01/31 06:43:30;0.00;0.00;0.62;0.00;0.00;0.62;2.37;1.40;;;22.70;23.60;;;;;;2233338;62;20859;-70
2024/01/31 06:46:16;0.00;0.00;0.62;0.00;0.00;0.62;3.00;2.20;;;22.70;23.60;;;;;;2735490;46;20340;-70
2024/01/31 06:49:02;0.00;0.00;0.62;0.00;0.00;0.62;2.40;1.70;;;22.70;23.60;;;;;;2233945;62;20391;-70
2024/01/31 06:51:47;0.00;0.00;0.62;0.00;0.00;0.62;2.57;1.60;;;22.70;23.60;;;;;;2229016;62;20854;-70
2024/01/31 06:54:31;0.00;0.00;0.62;0.00;0.00;0.62;2.70;2.03;;;22.70;23.60;;;;;;2232559;62;20397;-70
2024/01/31 06:57:16;0.00;0.00;0.62;0.00;0.00;0.62;3.10;2.00;;;22.70;23.60;;;;;;2232563;62;20371;-70
2024/01/31 07:00:02;0.00;0.00;0.62;0.00;0.00;0.62;3.17;2.33;;;22.70;23.60;;;;;;2228907;62;20406;-70
2024/01/31 07:02:47;0.00;0.00;0.62;0.00;0.00;0.62;4.93;2.50;;;22.70;23.60;;;;;;2232325;62;20784;-70
2024/01/31 07:05:33;0.00;0.00;0.62;0.00;0.00;0.62;3.60;2.37;;;22.70;24.20;;;;;;2232664;62;20898;-70
2024/01/31 07:08:17;0.00;0.00;0.62;0.00;0.00;0.62;3.03;2.03;;;22.70;23.60;;;;;;2458055;54;20376;-70
2024/01/31 07:11:04;0.00;0.00;0.62;0.00;0.00;0.62;3.27;2.50;;;22.70;23.60;;;;;;2228561;62;20829;-74
2024/01/31 07:13:49;0.00;0.00;0.62;0.00;0.00;0.62;3.70;2.27;;;22.60;23.50;;;;;;2229414;62;20485;-70
2024/01/31 07:16:35;0.00;0.00;0.62;0.00;0.00;0.62;3.20;2.20;;;22.70;23.60;;;;;;2232464;62;20395;-70
2024/01/31 07:19:20;0.00;0.00;0.62;0.00;0.00;0.62;3.03;2.03;;;22.70;23.70;;;;;;2232027;62;20901;-70
2024/01/31 07:22:06;0.00;0.00;0.62;0.00;0.00;0.62;3.87;2.37;;;22.70;23.70;;;;;;2232452;62;20933;-69
2024/01/31 07:24:50;0.00;0.00;0.62;0.00;0.00;0.62;3.83;2.50;;;22.70;23.70;;;;;;2232521;62;20387;-69
2024/01/31 07:27:37;0.00;0.00;0.62;0.00;0.00;0.62;4.63;3.83;;;22.70;23.70;;;;;;2231981;62;20351;-69
2024/01/31 07:30:22;0.00;0.00;0.62;0.00;0.00;0.62;4.10;3.20;;;22.60;23.60;;;;;;2229394;62;20367;-70
2024/01/31 07:33:06;0.00;0.00;0.62;0.00;0.00;0.62;4.10;3.30;;;22.70;23.70;;;;;;2229350;62;20391;-69
2024/01/31 07:35:51;0.00;0.00;0.62;0.00;0.00;0.62;5.27;3.40;;;22.70;23.70;;;;;;2232313;62;20379;-69
2024/01/31 07:38:40;0.00;0.00;0.62;0.00;0.00;0.62;5.10;3.73;;;22.70;23.70;;;;;;2231999;62;20959;-69
2024/01/31 07:41:25;0.00;0.00;0.62;0.00;0.00;0.62;5.40;3.83;;;22.70;23.70;;;;;;2229137;62;20395;-69
2024/01/31 07:44:09;0.00;0.00;0.62;0.00;0.00;0.62;5.60;4.57;;;22.70;23.70;;;;;;2228961;62;20367;-69
2024/01/31 07:46:54;0.00;0.00;0.62;0.00;0.00;0.62;5.93;4.13;;;22.60;23.60;;;;;;2232384;62;20371;-70
2024/01/31 07:49:41;0.00;0.00;0.62;0.00;0.00;0.62;6.13;4.70;;;22.60;23.60;;;;;;2232442;62;20351;-69
2024/01/31 07:52:25;0.00;0.00;0.62;0.00;0.00;0.62;5.33;4.30;;;22.60;23.70;;;;;;2232332;62;20390;-69
2024/01/31 07:55:11;0.00;0.00;0.62;0.00;0.00;0.62;6.03;4.70;;;22.60;23.60;;;;;;2232567;62;20427;-69
2024/01/31 07:57:56;0.00;0.00;0.62;0.00;0.00;0.62;5.30;4.50;;;22.60;23.60;;;;;;2232180;62;20352;-69
2024/01/31 08:00:41;0.00;0.00;0.62;0.00;0.00;0.62;5.20;4.43;;;22.60;23.60;;;;;;2232185;62;20360;-70
2024/01/31 08:03:25;0.00;0.00;0.62;0.00;0.00;0.62;5.20;3.90;;;22.60;23.60;;;;;;2232380;62;20390;-69
2024/01/31 08:06:10;0.00;0.00;0.62;0.00;0.00;0.62;6.40;4.53;;;22.60;23.60;;;;;;2229592;62;20411;-69
2024/01/31 08:08:54;0.00;0.00;0.62;0.00;0.00;0.62;8.10;5.57;;;22.60;23.60;;;;;;2227791;62;20351;-69
2024/01/31 08:11:43;0.00;0.00;0.62;0.00;0.00;0.62;6.80;5.63;;;22.60;23.60;;;;;;2233299;62;20407;-70
2024/01/31 08:14:28;0.00;0.00;0.62;0.00;0.00;0.62;9.07;5.00;;;22.60;23.60;;;;;;2225930;62;21019;-69
2024/01/31 08:17:12;0.00;0.00;0.62;0.00;0.00;0.62;11.17;6.10;;;22.60;23.60;;;;;;2226173;62;20368;-69
2024/01/31 08:19:57;0.00;0.00;0.62;0.00;0.00;0.62;10.33;5.63;;;22.60;23.60;;;;;;2225885;62;20543;-73
2024/01/31 08:22:41;0.00;0.00;0.62;0.00;0.00;0.62;12.70;6.10;;;22.60;23.60;;;;;;2233313;62;20387;-69
2024/01/31 08:25:26;0.00;0.00;0.62;0.00;0.00;0.62;10.37;6.20;;;22.60;23.60;;;;;;2232910;62;20926;-70
2024/01/31 08:28:12;0.00;0.00;0.62;0.00;0.00;0.62;12.03;6.37;;;22.60;23.60;;;;;;2229748;62;20783;-69
2024/01/31 08:30:57;0.00;0.00;0.62;0.00;0.00;0.62;11.93;5.90;;;22.60;23.60;;;;;;2233322;62;20407;-69
2024/01/31 08:33:41;0.00;0.00;0.62;0.00;0.00;0.62;8.90;6.50;;;22.60;23.60;;;;;;2229799;62;20387;-69
2024/01/31 08:36:26;0.00;0.00;0.62;0.00;0.00;0.62;13.33;6.83;;;22.60;23.60;;;;;;2232266;62;20383;-69
2024/01/31 08:39:10;0.00;0.00;0.62;0.00;0.00;0.62;11.80;6.17;;;22.60;23.60;;;;;;2232997;62;20363;-69
2024/01/31 08:41:55;0.00;0.00;0.62;0.00;0.00;0.62;12.30;5.13;;;22.60;23.60;;;;;;2229658;62;20810;-69
2024/01/31 08:44:41;0.00;0.00;0.62;0.00;0.00;0.62;12.50;5.87;;;22.60;23.60;;;;;;2739393;46;20373;-69
2024/01/31 08:47:26;0.00;0.00;0.62;0.00;0.00;0.62;6.60;4.80;;;22.60;23.60;;;;;;2229739;62;20403;-69
2024/01/31 08:50:11;0.00;0.00;0.62;0.00;0.00;0.62;8.97;4.97;;;22.60;23.60;;;;;;2229527;62;20380;-69
2024/01/31 08:52:55;0.00;0.00;0.62;0.00;0.00;0.62;8.43;5.07;;;22.60;23.60;;;;;;2229897;62;20387;-70
2024/01/31 08:55:40;0.00;0.00;0.62;0.00;0.00;0.62;9.40;5.70;;;22.60;23.60;;;;;;2230086;62;20403;-69
2024/01/31 08:58:24;0.00;0.00;0.62;0.00;0.00;0.62;12.00;6.57;;;22.60;23.60;;;;;;2233041;62;20456;-69
2024/01/31 09:01:10;0.00;0.00;0.62;0.00;0.00;0.62;12.10;6.07;;;22.60;23.60;;;;;;2229790;62;20379;-70
2024/01/31 09:03:55;0.00;0.00;0.62;0.00;0.00;0.62;10.40;5.40;;;22.60;23.60;;;;;;2232832;62;20771;-69
2024/01/31 09:06:41;0.00;0.00;0.62;0.00;0.00;0.62;11.53;6.30;;;22.60;23.60;;;;;;2729508;46;20365;-69
2024/01/31 09:09:25;0.00;0.00;0.62;0.00;0.00;0.62;12.67;5.33;;;22.60;23.60;;;;;;2225822;62;20448;-69
2024/01/31 09:12:10;0.00;0.00;0.62;0.00;0.00;0.62;10.63;5.43;;;22.60;23.60;;;;;;2229879;62;20387;-70
2024/01/31 09:14:54;0.00;0.00;0.62;0.00;0.00;0.62;18.83;6.17;;;22.60;23.60;;;;;;2232578;62;20933;-69
2024/01/31 09:17:40;0.00;0.00;0.62;0.00;0.00;0.62;14.77;6.10;;;22.60;23.60;;;;;;2232852;62;20412;-69
2024/01/31 09:20:25;0.00;0.00;0.62;0.00;0.00;0.62;10.60;5.20;;;22.60;23.60;;;;;;2226712;62;20402;-68
2024/01/31 09:23:09;0.00;0.00;0.62;0.00;0.00;0.62;11.80;6.30;;;22.60;23.60;;;;;;2229920;62;20394;-68
2024/01/31 09:25:54;0.00;0.00;0.62;0.00;0.00;0.62;10.63;5.80;;;22.60;23.60;;;;;;2229493;62;20400;-68
2024/01/31 09:28:39;0.00;0.00;0.62;0.00;0.00;0.62;12.20;5.67;;;22.60;23.50;;;;;;2229687;62;20424;-69
2024/01/31 09:31:25;0.00;0.00;0.62;0.00;0.00;0.62;19.10;6.30;;;22.60;23.50;;;;;;2230030;62;20792;-69
2024/01/31 09:34:11;0.00;0.00;0.62;0.00;0.00;0.62;12.00;6.07;;;22.60;23.50;;;;;;2232780;62;20420;-70
2024/01/31 09:36:56;0.00;0.00;0.62;0.00;0.00;0.62;18.77;6.70;;;22.60;23.60;;;;;;2233010;62;20449;-69
2024/01/31 09:39:40;0.00;0.00;0.62;0.00;0.00;0.62;14.90;6.33;;;22.60;23.50;;;;;;2229948;62;20400;-69
2024/01/31 09:42:26;0.00;0.00;0.62;0.00;0.00;0.62;18.83;7.17;;;22.60;23.50;;;;;;2232335;62;20391;-68
2024/01/31 09:45:12;0.00;0.00;0.62;0.00;0.00;0.62;22.43;7.50;;;22.60;24.10;;;;;;2229855;62;20355;-68
2024/01/31 09:47:59;0.00;0.00;0.62;0.00;0.00;0.62;23.43;8.00;;;22.60;23.50;;;;;;2232962;62;20403;-69
2024/01/31 09:50:46;0.00;0.00;0.62;0.00;0.00;0.62;20.00;7.60;;;22.60;23.50;;;;;;2233269;62;20810;-68
2024/01/31 09:53:33;0.00;0.00;0.62;0.00;0.00;0.62;15.70;7.90;;;22.60;23.50;;;;;;2233077;62;20375;-69
2024/01/31 09:56:19;0.00;0.00;0.62;0.00;0.00;0.62;18.67;7.43;;;22.60;23.50;;;;;;2229500;62;20447;-69
2024/01/31 09:59:04;0.00;0.00;0.62;0.00;0.00;0.62;16.33;7.70;;;22.60;23.50;;;;;;2232785;62;20439;-71
2024/01/31 10:01:52;0.00;0.00;0.62;0.00;0.00;0.62;26.90;7.97;;;22.60;23.50;;;;;;2229851;62;20395;-68
2024/01/31 10:04:37;0.00;0.00;0.62;0.00;0.00;0.62;18.53;7.10;;;22.60;23.50;;;;;;2232616;62;20436;-70
2024/01/31 10:07:24;0.00;0.00;0.62;0.00;0.00;0.62;14.13;7.00;;;22.60;23.50;;;;;;2232918;62;20415;-71
2024/01/31 10:10:09;0.00;0.00;0.62;0.00;0.00;0.62;15.83;6.73;;;22.60;23.50;;;;;;2232805;62;20391;-71
2024/01/31 10:12:54;0.00;0.00;0.62;0.00;0.00;0.62;10.20;5.30;;;22.60;23.50;;;;;;2229669;62;20399;-71
2024/01/31 10:15:38;0.00;0.00;0.62;0.00;0.00;0.62;12.90;5.77;;;22.60;23.50;;;;;;2229291;62;20803;-71
2024/01/31 10:18:27;0.00;0.00;0.62;0.00;0.00;0.62;12.50;6.23;;;22.60;23.50;;;;;;2229219;62;20876;-70
2024/01/31 10:21:12;0.00;0.00;0.62;0.00;0.00;0.62;14.60;5.53;;;22.60;23.50;;;;;;2232591;62;20375;-71
2024/01/31 10:24:02;0.00;0.00;0.62;0.00;0.00;0.62;14.60;6.30;;;22.60;23.50;;;;;;2229489;62;20383;-71
2024/01/31 10:26:47;0.00;0.00;0.62;0.00;0.00;0.62;17.63;6.50;;;22.60;23.50;;;;;;2232593;62;20391;-71
2024/01/31 10:29:32;0.00;0.00;0.62;0.00;0.00;0.62;13.43;5.10;;;22.60;23.50;;;;;;2229539;62;20420;-72
2024/01/31 10:32:20;0.00;0.00;0.62;0.00;0.00;0.62;15.97;5.90;;;22.60;23.50;;;;;;2232809;62;20387;-71
2024/01/31 10:35:06;0.00;0.00;0.62;0.00;0.00;0.62;13.43;5.13;;;22.60;23.50;;;;;;2232932;62;21157;-72
2024/01/31 10:37:51;0.00;0.00;0.62;0.00;0.00;0.62;16.77;5.00;;;22.60;23.50;;;;;;2232637;62;20791;-71
2024/01/31 10:40:40;0.00;0.00;0.62;0.00;0.00;0.62;21.30;6.00;;;22.60;23.50;;;;;;2229131;62;20410;-70
2024/01/31 10:43:27;0.00;0.00;0.62;0.00;0.00;0.62;11.63;5.20;;;22.50;23.40;;;;;;2229786;62;20395;-71
2024/01/31 10:46:11;0.00;0.00;0.62;0.00;0.00;0.62;12.90;5.27;;;22.60;23.50;;;;;;2229677;62;20366;-71
2024/01/31 10:48:56;0.00;0.00;0.62;0.00;0.00;0.62;13.63;6.23;;;22.60;23.40;;;;;;2229186;62;20371;-71
2024/01/31 10:51:42;0.00;0.00;0.62;0.00;0.00;0.62;12.77;6.83;;;22.60;23.40;;;;;;2232734;62;20390;-70